Main page
METAR-TAF:

METAR-TAF

Airports :

Holbeach, England

RAF Holbeach

latitude: 52-52N, longitude: 000-09E, elevation: 3 m

Current weather observation

The report was made 13 hours and 23 minutes ago, at 12:50 UTC
Wind 22 kt from the North
Temperature 13°C
Humidity 100%
Pressure 996 hPa
Visibility: 4000 m
Broken clouds at a height of 1000 ft
light rain

METAR: EGYH 281250Z 35022KT 4000 -RA BKN010 13/13 Q0996 GRN

Time: 03:13 (02:13 UTC)


TAF: missing

Weather observations and forecasts of more than 4000 airports (METAR and TAF reports).

The available stations are represented by yellow and red dots on the map.

Hover mouse over dot to see the name of the station.

Then click to see weather observations and forecasts.

To change the map : click on the green buttons with a black cross to zoom in, on the green button with a dash to zoom out, or on the green arrows for adjacent maps.


METAR-TAF: